AZU238 SBCF-SBRJ
Flight info
| Callsign | AZU238 |
|---|---|
| Flight time | 0h 37m |
| Altitude | 28000 |
| Route | MAVGU UZ3 TOKIM |
| Aircraft | E195/M-SDE3GILORVW/S |
Departure
| Time | 2026-05-08 00:28 |
|---|---|
| Airport | Tancredo Neves International Airport (SBCF) |
Arrival
| Time | 2026-05-08 01:06 |
|---|---|
| Airport | Santos Dumont Airport (SBRJ) |
| Time | Latitude | Longitude | Altitude | Speed | Heading |
|---|---|---|---|---|---|
| 2026-05-08 00:11 | -19.62746 | -43.96959 | 2799 ft | 0 kts | 54° |
| 2026-05-08 00:23 | -19.62756 | -43.96973 | 2802 ft | 4 kts | 12° |
| 2026-05-08 00:23 | -19.62775 | -43.96966 | 2801 ft | 4 kts | 309° |
| 2026-05-08 00:24 | -19.62782 | -43.96956 | 2802 ft | 1 kts | 304° |
| 2026-05-08 00:24 | -19.62783 | -43.96955 | 2802 ft | 0 kts | 304° |
| 2026-05-08 00:25 | -19.62783 | -43.96956 | 2802 ft | 0 kts | 304° |
| 2026-05-08 00:26 | -19.62778 | -43.96963 | 2808 ft | 2 kts | 305° |
| 2026-05-08 00:26 | -19.62771 | -43.96982 | 2798 ft | 4 kts | 285° |
| 2026-05-08 00:26 | -19.62773 | -43.97016 | 2808 ft | 6 kts | 258° |
| 2026-05-08 00:26 | -19.62798 | -43.97053 | 2808 ft | 7 kts | 220° |
| 2026-05-08 00:27 | -19.62839 | -43.97095 | 2808 ft | 9 kts | 227° |
| 2026-05-08 00:27 | -19.62882 | -43.97155 | 2809 ft | 11 kts | 232° |
| 2026-05-08 00:27 | -19.62961 | -43.97212 | 2809 ft | 17 kts | 183° |
| 2026-05-08 00:27 | -19.63124 | -43.97098 | 2809 ft | 57 kts | 137° |
| 2026-05-08 00:28 | -19.63609 | -43.96646 | 2812 ft | 127 kts | 140° |
| 2026-05-08 00:28 | -19.64424 | -43.95923 | 3039 ft | 167 kts | 140° |
| 2026-05-08 00:28 | -19.65357 | -43.95178 | 3957 ft | 172 kts | 141° |
| 2026-05-08 00:28 | -19.66435 | -43.94405 | 4444 ft | 211 kts | 138° |
| 2026-05-08 00:29 | -19.67550 | -43.93290 | 5261 ft | 220 kts | 129° |
| 2026-05-08 00:29 | -19.68657 | -43.92056 | 5993 ft | 242 kts | 128° |
| 2026-05-08 00:29 | -19.69841 | -43.90687 | 6734 ft | 261 kts | 129° |
| 2026-05-08 00:29 | -19.71224 | -43.89334 | 7529 ft | 278 kts | 136° |
| 2026-05-08 00:30 | -19.72724 | -43.87962 | 8414 ft | 289 kts | 137° |
| 2026-05-08 00:30 | -19.74348 | -43.86680 | 9475 ft | 297 kts | 152° |
| 2026-05-08 00:30 | -19.76378 | -43.86165 | 10405 ft | 311 kts | 179° |
| 2026-05-08 00:30 | -19.78518 | -43.86604 | 11118 ft | 327 kts | 197° |
| 2026-05-08 00:31 | -19.80775 | -43.87152 | 11896 ft | 341 kts | 189° |
| 2026-05-08 00:31 | -19.83172 | -43.87543 | 12687 ft | 353 kts | 188° |
| 2026-05-08 00:31 | -19.85625 | -43.87918 | 13693 ft | 359 kts | 188° |
| 2026-05-08 00:31 | -19.88116 | -43.88291 | 14681 ft | 363 kts | 187° |
| 2026-05-08 00:32 | -19.90639 | -43.88667 | 15593 ft | 372 kts | 187° |
| 2026-05-08 00:32 | -19.93214 | -43.89056 | 16573 ft | 375 kts | 187° |
| 2026-05-08 00:32 | -19.95812 | -43.89452 | 17505 ft | 381 kts | 187° |
| 2026-05-08 00:32 | -19.98476 | -43.89863 | 18267 ft | 389 kts | 187° |
| 2026-05-08 00:33 | -20.01162 | -43.90290 | 19058 ft | 392 kts | 187° |
| 2026-05-08 00:33 | -20.03829 | -43.90715 | 19856 ft | 393 kts | 188° |
| 2026-05-08 00:33 | -20.06534 | -43.91136 | 20658 ft | 394 kts | 188° |
| 2026-05-08 00:33 | -20.09266 | -43.91550 | 21339 ft | 398 kts | 188° |
| 2026-05-08 00:34 | -20.12019 | -43.91957 | 22062 ft | 401 kts | 188° |
| 2026-05-08 00:34 | -20.14794 | -43.92362 | 22777 ft | 404 kts | 188° |
| 2026-05-08 00:34 | -20.17590 | -43.92767 | 23474 ft | 406 kts | 188° |
| 2026-05-08 00:34 | -20.20402 | -43.93168 | 24061 ft | 409 kts | 188° |
| 2026-05-08 00:35 | -20.23225 | -43.93564 | 24593 ft | 411 kts | 188° |
| 2026-05-08 00:35 | -20.26074 | -43.93954 | 25120 ft | 413 kts | 188° |
| 2026-05-08 00:35 | -20.28895 | -43.94334 | 25617 ft | 416 kts | 188° |
| 2026-05-08 00:35 | -20.31780 | -43.94707 | 26125 ft | 418 kts | 188° |
| 2026-05-08 00:36 | -20.34676 | -43.95072 | 26628 ft | 420 kts | 188° |
| 2026-05-08 00:36 | -20.37583 | -43.95430 | 27104 ft | 423 kts | 188° |
| 2026-05-08 00:36 | -20.40515 | -43.95782 | 27555 ft | 425 kts | 188° |
| 2026-05-08 00:36 | -20.43460 | -43.96130 | 27839 ft | 421 kts | 188° |
| 2026-05-08 00:37 | -20.46377 | -43.96470 | 27911 ft | 424 kts | 188° |
| 2026-05-08 00:37 | -20.49325 | -43.96811 | 27956 ft | 427 kts | 188° |
| 2026-05-08 00:37 | -20.52243 | -43.97149 | 27971 ft | 428 kts | 188° |
| 2026-05-08 00:38 | -20.58164 | -43.97821 | 27965 ft | 432 kts | 188° |
| 2026-05-08 00:38 | -20.61198 | -43.98168 | 27966 ft | 444 kts | 188° |
| 2026-05-08 00:38 | -20.64301 | -43.98525 | 27973 ft | 455 kts | 188° |
| 2026-05-08 00:38 | -20.67487 | -43.98894 | 27978 ft | 466 kts | 188° |
| 2026-05-08 00:39 | -20.70711 | -43.99269 | 27975 ft | 466 kts | 188° |
| 2026-05-08 00:39 | -20.73927 | -43.99643 | 27969 ft | 464 kts | 188° |
| 2026-05-08 00:39 | -20.77136 | -44.00016 | 27963 ft | 464 kts | 188° |
| 2026-05-08 00:39 | -20.80313 | -44.00382 | 27958 ft | 464 kts | 188° |
| 2026-05-08 00:40 | -20.83519 | -44.00750 | 27959 ft | 464 kts | 188° |
| 2026-05-08 00:40 | -20.86732 | -44.01119 | 27962 ft | 464 kts | 188° |
| 2026-05-08 00:40 | -20.89943 | -44.01488 | 27966 ft | 464 kts | 188° |
| 2026-05-08 00:40 | -20.93164 | -44.01859 | 27957 ft | 464 kts | 188° |
| 2026-05-08 00:41 | -20.96378 | -44.02229 | 27962 ft | 464 kts | 188° |
| 2026-05-08 00:41 | -20.99586 | -44.02598 | 27965 ft | 465 kts | 188° |
| 2026-05-08 00:41 | -21.02807 | -44.02965 | 27966 ft | 465 kts | 188° |
| 2026-05-08 00:41 | -21.06021 | -44.03334 | 27964 ft | 465 kts | 188° |
| 2026-05-08 00:42 | -21.09236 | -44.03702 | 27962 ft | 465 kts | 188° |
| 2026-05-08 00:42 | -21.12408 | -44.04067 | 27968 ft | 465 kts | 188° |
| 2026-05-08 00:42 | -21.15619 | -44.04438 | 27966 ft | 465 kts | 188° |
| 2026-05-08 00:42 | -21.18845 | -44.04810 | 27967 ft | 465 kts | 188° |
| 2026-05-08 00:43 | -21.22060 | -44.05181 | 27969 ft | 465 kts | 188° |
| 2026-05-08 00:43 | -21.25275 | -44.05554 | 27963 ft | 465 kts | 188° |
| 2026-05-08 00:43 | -21.28487 | -44.05928 | 27961 ft | 465 kts | 188° |
| 2026-05-08 00:43 | -21.31699 | -44.06301 | 27962 ft | 465 kts | 188° |
| 2026-05-08 00:44 | -21.34919 | -44.06675 | 27965 ft | 465 kts | 188° |
| 2026-05-08 00:44 | -21.38131 | -44.07050 | 27956 ft | 465 kts | 188° |
| 2026-05-08 00:44 | -21.41298 | -44.07420 | 27962 ft | 465 kts | 188° |
| 2026-05-08 00:44 | -21.44516 | -44.07797 | 27961 ft | 465 kts | 188° |
| 2026-05-08 00:45 | -21.47725 | -44.08238 | 27963 ft | 465 kts | 190° |
| 2026-05-08 00:45 | -21.50906 | -44.08751 | 27965 ft | 464 kts | 190° |
| 2026-05-08 00:45 | -21.54098 | -44.09292 | 27961 ft | 464 kts | 191° |
| 2026-05-08 00:45 | -21.57290 | -44.09845 | 27964 ft | 464 kts | 191° |
| 2026-05-08 00:46 | -21.60472 | -44.10402 | 27957 ft | 464 kts | 191° |
| 2026-05-08 00:46 | -21.63692 | -44.10738 | 27966 ft | 466 kts | 183° |
| 2026-05-08 00:46 | -21.66931 | -44.10509 | 27968 ft | 469 kts | 174° |
| 2026-05-08 00:46 | -21.70081 | -44.09718 | 27962 ft | 473 kts | 165° |
| 2026-05-08 00:47 | -21.73125 | -44.08364 | 27960 ft | 477 kts | 155° |
| 2026-05-08 00:47 | -21.76040 | -44.06639 | 27970 ft | 478 kts | 153° |
| 2026-05-08 00:47 | -21.78924 | -44.04852 | 28007 ft | 478 kts | 153° |
| 2026-05-08 00:48 | -21.84729 | -44.01350 | 28088 ft | 479 kts | 154° |
| 2026-05-08 00:48 | -21.90596 | -43.97958 | 28115 ft | 479 kts | 155° |
| 2026-05-08 00:49 | -21.96490 | -43.94611 | 28101 ft | 479 kts | 155° |
| 2026-05-08 00:49 | -22.02430 | -43.91417 | 27959 ft | 473 kts | 161° |
| 2026-05-08 00:49 | -22.05437 | -43.90100 | 27492 ft | 472 kts | 159° |
| 2026-05-08 00:50 | -22.08455 | -43.88769 | 26872 ft | 466 kts | 161° |
| 2026-05-08 00:50 | -22.11450 | -43.87465 | 26156 ft | 463 kts | 160° |
| 2026-05-08 00:50 | -22.14418 | -43.86181 | 25447 ft | 458 kts | 160° |
| 2026-05-08 00:50 | -22.17366 | -43.84896 | 24769 ft | 455 kts | 160° |
| 2026-05-08 00:51 | -22.20285 | -43.83629 | 24087 ft | 451 kts | 160° |
| 2026-05-08 00:51 | -22.23187 | -43.82362 | 23388 ft | 448 kts | 160° |
| 2026-05-08 00:51 | -22.26066 | -43.81114 | 22624 ft | 444 kts | 159° |
| 2026-05-08 00:51 | -22.28917 | -43.79867 | 21915 ft | 440 kts | 159° |
| 2026-05-08 00:52 | -22.31752 | -43.78632 | 21291 ft | 437 kts | 159° |
| 2026-05-08 00:52 | -22.34562 | -43.77405 | 20696 ft | 435 kts | 159° |
| 2026-05-08 00:52 | -22.37371 | -43.76180 | 20109 ft | 433 kts | 158° |
| 2026-05-08 00:52 | -22.40159 | -43.74963 | 19535 ft | 431 kts | 158° |
| 2026-05-08 00:53 | -22.42886 | -43.73770 | 18969 ft | 428 kts | 157° |
| 2026-05-08 00:53 | -22.45638 | -43.72569 | 18295 ft | 425 kts | 157° |
| 2026-05-08 00:53 | -22.48368 | -43.71371 | 17529 ft | 421 kts | 157° |
| 2026-05-08 00:53 | -22.51060 | -43.70196 | 16779 ft | 413 kts | 157° |
| 2026-05-08 00:54 | -22.53699 | -43.69037 | 16045 ft | 406 kts | 157° |
| 2026-05-08 00:54 | -22.56297 | -43.67903 | 15323 ft | 400 kts | 157° |
| 2026-05-08 00:54 | -22.58855 | -43.66780 | 14620 ft | 392 kts | 157° |
| 2026-05-08 00:54 | -22.61318 | -43.65703 | 13915 ft | 384 kts | 156° |
| 2026-05-08 00:55 | -22.63782 | -43.64623 | 13134 ft | 381 kts | 157° |
| 2026-05-08 00:55 | -22.66220 | -43.63549 | 12370 ft | 374 kts | 157° |
| 2026-05-08 00:55 | -22.68585 | -43.62520 | 11610 ft | 359 kts | 157° |
| 2026-05-08 00:55 | -22.70857 | -43.61518 | 10885 ft | 348 kts | 156° |
| 2026-05-08 00:56 | -22.73067 | -43.60549 | 10169 ft | 339 kts | 157° |
| 2026-05-08 00:56 | -22.75201 | -43.59612 | 9409 ft | 323 kts | 157° |
| 2026-05-08 00:56 | -22.77247 | -43.58712 | 8656 ft | 312 kts | 157° |
| 2026-05-08 00:56 | -22.79275 | -43.57819 | 8048 ft | 315 kts | 157° |
| 2026-05-08 00:57 | -22.81277 | -43.56941 | 7445 ft | 306 kts | 157° |
| 2026-05-08 00:57 | -22.83214 | -43.56090 | 6873 ft | 294 kts | 158° |
| 2026-05-08 00:57 | -22.85092 | -43.55268 | 6569 ft | 290 kts | 157° |
| 2026-05-08 00:57 | -22.86950 | -43.54444 | 6248 ft | 287 kts | 157° |
| 2026-05-08 00:58 | -22.88743 | -43.53656 | 6140 ft | 278 kts | 157° |
| 2026-05-08 00:58 | -22.90512 | -43.52880 | 6088 ft | 271 kts | 157° |
| 2026-05-08 00:58 | -22.92242 | -43.52113 | 6064 ft | 265 kts | 157° |
| 2026-05-08 00:58 | -22.93772 | -43.51147 | 6054 ft | 248 kts | 131° |
| 2026-05-08 00:59 | -22.94586 | -43.49609 | 5943 ft | 229 kts | 96° |
| 2026-05-08 00:59 | -22.94452 | -43.47964 | 5851 ft | 218 kts | 59° |
| 2026-05-08 00:59 | -22.93666 | -43.46604 | 6045 ft | 210 kts | 51° |
| 2026-05-08 00:59 | -22.92828 | -43.45258 | 5763 ft | 219 kts | 53° |
| 2026-05-08 01:00 | -22.92004 | -43.43870 | 5505 ft | 224 kts | 52° |
| 2026-05-08 01:00 | -22.91229 | -43.42392 | 5188 ft | 228 kts | 58° |
| 2026-05-08 01:00 | -22.90530 | -43.40792 | 4857 ft | 237 kts | 60° |
| 2026-05-08 01:00 | -22.89869 | -43.39206 | 4472 ft | 225 kts | 61° |
| 2026-05-08 01:01 | -22.89229 | -43.37705 | 4089 ft | 215 kts | 61° |
| 2026-05-08 01:01 | -22.88736 | -43.36197 | 3832 ft | 213 kts | 73° |
| 2026-05-08 01:01 | -22.88486 | -43.34612 | 3635 ft | 213 kts | 78° |
| 2026-05-08 01:01 | -22.88374 | -43.33023 | 3496 ft | 210 kts | 86° |
| 2026-05-08 01:02 | -22.88398 | -43.31385 | 3367 ft | 230 kts | 88° |
| 2026-05-08 01:02 | -22.88454 | -43.29726 | 3428 ft | 207 kts | 89° |
| 2026-05-08 01:02 | -22.88529 | -43.28175 | 3561 ft | 201 kts | 91° |
| 2026-05-08 01:02 | -22.88687 | -43.26678 | 3466 ft | 199 kts | 94° |
| 2026-05-08 01:03 | -22.88968 | -43.25232 | 3300 ft | 196 kts | 101° |
| 2026-05-08 01:03 | -22.89398 | -43.23844 | 2988 ft | 197 kts | 108° |
| 2026-05-08 01:03 | -22.89951 | -43.22490 | 2555 ft | 196 kts | 114° |
| 2026-05-08 01:03 | -22.90634 | -43.21224 | 2093 ft | 193 kts | 121° |
| 2026-05-08 01:04 | -22.91457 | -43.20085 | 1635 ft | 192 kts | 132° |
| 2026-05-08 01:04 | -22.92450 | -43.19215 | 1435 ft | 172 kts | 149° |
| 2026-05-08 01:04 | -22.93455 | -43.18661 | 1208 ft | 153 kts | 149° |
| 2026-05-08 01:04 | -22.94298 | -43.18021 | 962 ft | 145 kts | 126° |
| 2026-05-08 01:05 | -22.94502 | -43.17054 | 774 ft | 134 kts | 68° |
| 2026-05-08 01:05 | -22.93784 | -43.16471 | 436 ft | 137 kts | 13° |
| 2026-05-08 01:05 | -22.92879 | -43.16293 | 246 ft | 133 kts | 10° |
| 2026-05-08 01:05 | -22.91958 | -43.16237 | 91 ft | 134 kts | 358° |
| 2026-05-08 01:06 | -22.91064 | -43.16290 | 20 ft | 109 kts | 358° |
| 2026-05-08 01:06 | -22.90610 | -43.16308 | 23 ft | 38 kts | 357° |
| 2026-05-08 01:06 | -22.90491 | -43.16398 | 22 ft | 22 kts | 268° |
| 2026-05-08 01:06 | -22.90517 | -43.16547 | 21 ft | 17 kts | 227° |
| 2026-05-08 01:07 | -22.90626 | -43.16548 | 21 ft | 17 kts | 176° |
| 2026-05-08 01:07 | -22.90759 | -43.16540 | 21 ft | 19 kts | 179° |
| 2026-05-08 01:07 | -22.90892 | -43.16545 | 23 ft | 20 kts | 174° |
| 2026-05-08 01:07 | -22.91034 | -43.16534 | 21 ft | 21 kts | 177° |
| 2026-05-08 01:08 | -22.91127 | -43.16518 | 21 ft | 7 kts | 171° |
| 2026-05-08 01:08 | -22.91187 | -43.16514 | 22 ft | 10 kts | 177° |
| 2026-05-08 01:08 | -22.91234 | -43.16514 | 21 ft | 3 kts | 193° |
| 2026-05-08 01:08 | -22.91243 | -43.16530 | 21 ft | 2 kts | 260° |
| 2026-05-08 01:09 | -22.91244 | -43.16558 | 21 ft | 5 kts | 267° |
| 2026-05-08 01:09 | -22.91245 | -43.16580 | 21 ft | 0 kts | 267° |